Time;durP1;ratioP1;P1;durP2;ratioP2;P2;SDS_P1;SDS_P2;PMS_P1;PMS_P2;Temp;Humidity;BMP_temperature;BMP_pressure;BME280_temperature;BME280_humidity;BME280_pressure;Samples;Min_cycle;Max_cycle;Signal;HPM_P1;HPM_P2
2023/12/08 00:01:08;;;;;;;31.52;17.73;;;;;;;0.16;79.77;100056.66;10394969;28;20130;-79
2023/12/08 00:06:11;;;;;;;32.03;16.65;;;;;;;0.19;78.91;100068.88;10402998;28;20053;-79
2023/12/08 00:11:14;;;;;;;28.23;15.73;;;;;;;0.29;78.91;100030.56;10401734;28;20129;-80
2023/12/08 00:16:19;;;;;;;28.40;15.80;;;;;;;0.25;79.39;100018.41;10410932;28;20353;-78
2023/12/08 00:21:23;;;;;;;30.55;16.38;;;;;;;0.17;79.13;100003.75;10409904;28;20092;-79
2023/12/08 00:26:26;;;;;;;31.02;16.13;;;;;;;0.11;79.67;99984.69;10423206;28;20052;-80
2023/12/08 00:31:31;;;;;;;33.30;17.70;;;;;;;0.17;80.11;99969.44;10414521;28;20042;-80
2023/12/08 00:36:34;;;;;;;29.23;16.67;;;;;;;-0.04;80.94;99957.16;10397404;28;20038;-79
2023/12/08 00:41:37;;;;;;;28.55;16.48;;;;;;;-0.06;80.91;99953.72;10388635;28;20064;-78
2023/12/08 00:46:42;;;;;;;29.60;14.50;;;;;;;0.09;80.23;99950.41;10418950;28;20059;-80
2023/12/08 00:51:45;;;;;;;35.75;16.58;;;;;;;0.19;79.66;99944.72;10414157;28;20076;-80
2023/12/08 00:56:48;;;;;;;27.67;15.20;;;;;;;0.11;79.48;99931.84;10399918;28;20100;-80
2023/12/08 01:01:52;;;;;;;30.00;15.23;;;;;;;0.11;79.91;99918.66;10419325;28;20049;-80
2023/12/08 01:06:55;;;;;;;28.90;16.30;;;;;;;-0.14;79.91;99919.78;10401577;28;20107;-79
2023/12/08 01:11:58;;;;;;;30.38;14.95;;;;;;;0.04;79.34;99907.50;10426472;28;20084;-80
2023/12/08 01:17:03;;;;;;;32.00;14.38;;;;;;;0.11;78.87;99901.03;10395102;28;20052;-78
2023/12/08 01:22:06;;;;;;;27.73;14.88;;;;;;;0.13;78.55;99901.81;10417341;28;20496;-82
2023/12/08 01:27:09;;;;;;;28.88;15.60;;;;;;;0.17;78.59;99870.84;10409892;28;20045;-80
2023/12/08 01:32:13;;;;;;;29.63;15.80;;;;;;;0.07;79.20;99870.41;10404498;28;20064;-79
2023/12/08 01:37:16;;;;;;;31.73;16.02;;;;;;;0.07;78.39;99853.69;10405114;28;20045;-80
2023/12/08 01:42:19;;;;;;;27.45;16.48;;;;;;;0.22;78.41;99852.13;10420697;28;20088;-79
2023/12/08 01:47:24;;;;;;;27.92;15.50;;;;;;;0.13;78.04;99834.91;10406681;28;20054;-81
2023/12/08 01:52:27;;;;;;;27.23;14.50;;;;;;;0.24;77.46;99837.06;10391036;28;20065;-81
2023/12/08 01:57:30;;;;;;;26.00;14.38;;;;;;;0.24;76.95;99844.97;10409263;28;20121;-79
2023/12/08 02:02:35;;;;;;;24.27;14.13;;;;;;;0.12;77.14;99839.34;10409160;28;20068;-81
2023/12/08 02:07:38;;;;;;;26.05;15.57;;;;;;;0.20;76.51;99820.50;10398885;28;20510;-81
2023/12/08 02:12:41;;;;;;;26.30;12.50;;;;;;;0.32;76.03;99801.41;10406349;28;20048;-80
2023/12/08 02:17:47;;;;;;;25.65;15.25;;;;;;;0.54;75.40;99803.03;10421569;28;20061;-80
2023/12/08 02:22:50;;;;;;;25.48;13.07;;;;;;;0.43;75.04;99826.47;10422707;28;20042;-80
2023/12/08 02:27:55;;;;;;;24.17;13.93;;;;;;;0.69;74.49;99814.66;10404552;28;20052;-80
2023/12/08 02:33:08;;;;;;;24.80;13.70;;;;;;;0.62;75.11;99816.72;10409582;28;20091;-78
2023/12/08 02:38:18;;;;;;;23.42;13.30;;;;;;;0.39;75.05;99799.34;10396114;28;20060;-80
2023/12/08 02:43:22;;;;;;;24.67;12.95;;;;;;;0.48;75.61;99783.03;10401287;28;20038;-79
2023/12/08 02:48:26;;;;;;;21.45;13.27;;;;;;;0.53;75.87;99770.47;10399413;28;20096;-80
2023/12/08 02:53:29;;;;;;;25.88;13.82;;;;;;;0.59;75.07;99753.44;10399156;28;20153;-80
2023/12/08 02:58:34;;;;;;;26.85;13.90;;;;;;;0.60;75.06;99757.78;10406964;28;20089;-79
2023/12/08 03:03:37;;;;;;;28.17;12.85;;;;;;;0.52;74.50;99767.88;10405307;28;20041;-80
2023/12/08 03:08:40;;;;;;;21.08;12.70;;;;;;;0.65;73.73;99770.78;10401195;28;20398;-79
2023/12/08 03:13:44;;;;;;;25.95;12.05;;;;;;;0.61;73.72;99741.88;10397474;28;20045;-79
2023/12/08 03:18:47;;;;;;;22.63;13.48;;;;;;;0.67;73.78;99745.13;10395913;28;20718;-80
2023/12/08 03:23:51;;;;;;;24.00;12.90;;;;;;;0.62;74.05;99745.34;10394032;28;20481;-80
2023/12/08 03:28:56;;;;;;;23.88;13.90;;;;;;;0.56;74.32;99757.09;10407768;28;20088;-80
2023/12/08 03:33:59;;;;;;;22.83;13.63;;;;;;;0.80;73.87;99759.44;10390456;28;20054;-80
2023/12/08 03:39:02;;;;;;;23.25;12.52;;;;;;;0.92;73.67;99763.25;10396021;28;20144;-81
2023/12/08 03:44:06;;;;;;;21.27;12.70;;;;;;;0.94;73.72;99762.25;10398166;28;20052;-81
2023/12/08 03:49:09;;;;;;;24.30;13.90;;;;;;;0.88;74.82;99746.69;10398326;28;20042;-80
2023/12/08 03:54:12;;;;;;;27.77;15.13;;;;;;;0.92;75.27;99760.59;10405608;28;20044;-80
2023/12/08 03:59:17;;;;;;;26.75;14.00;;;;;;;0.90;75.52;99744.81;10419659;28;20062;-80
2023/12/08 04:04:21;;;;;;;24.92;13.82;;;;;;;0.93;75.49;99735.88;10393844;28;20046;-79
2023/12/08 04:09:30;;;;;;;25.80;13.68;;;;;;;0.74;76.27;99733.31;10379201;28;20073;-80
2023/12/08 04:14:34;;;;;;;25.23;13.95;;;;;;;0.97;75.48;99726.84;10379005;28;20048;-80
2023/12/08 04:19:37;;;;;;;23.90;13.82;;;;;;;0.93;75.63;99734.06;10386558;28;20076;-79
2023/12/08 04:24:40;;;;;;;21.48;12.85;;;;;;;0.92;75.17;99736.81;10408668;28;20047;-80
2023/12/08 04:29:45;;;;;;;23.70;12.70;;;;;;;1.03;74.16;99735.31;10418787;28;20059;-78
2023/12/08 04:34:48;;;;;;;22.17;12.75;;;;;;;0.91;73.62;99733.31;10399205;28;20407;-79
2023/12/08 04:39:51;;;;;;;20.63;13.20;;;;;;;0.93;72.68;99735.88;10400633;28;20049;-79
2023/12/08 04:44:55;;;;;;;19.63;12.02;;;;;;;1.08;72.67;99744.81;10403770;28;20065;-78
2023/12/08 04:49:59;;;;;;;22.08;12.85;;;;;;;1.21;72.47;99740.59;10410394;28;20075;-79
2023/12/08 04:55:04;;;;;;;22.75;12.85;;;;;;;0.98;73.84;99736.47;10420696;28;20556;-78
2023/12/08 05:00:10;;;;;;;25.70;13.60;;;;;;;1.01;73.72;99736.31;10412158;28;20049;-79
2023/12/08 05:05:13;;;;;;;19.77;11.77;;;;;;;0.74;74.31;99723.59;10382139;28;20033;-79
2023/12/08 05:10:17;;;;;;;21.02;13.77;;;;;;;1.02;74.09;99701.88;10383246;28;20250;-79
2023/12/08 05:15:21;;;;;;;26.90;13.52;;;;;;;0.93;74.43;99717.34;10381655;28;20038;-80
2023/12/08 05:20:24;;;;;;;21.70;13.27;;;;;;;0.95;74.71;99724.28;10402212;28;20413;-78
2023/12/08 05:25:27;;;;;;;23.90;12.98;;;;;;;0.83;75.76;99709.06;10398884;28;20061;-80
2023/12/08 05:30:32;;;;;;;27.85;14.02;;;;;;;1.00;76.10;99701.09;10407062;28;20136;-79
2023/12/08 05:35:35;;;;;;;24.40;13.02;;;;;;;0.82;76.59;99709.97;10368615;28;1149187;-80
2023/12/08 05:40:38;;;;;;;24.85;13.65;;;;;;;1.02;76.34;99698.38;10405717;28;20050;-81
2023/12/08 05:45:43;;;;;;;24.77;14.05;;;;;;;1.05;76.61;99688.47;10382237;28;20045;-80
2023/12/08 05:50:46;;;;;;;26.40;13.90;;;;;;;0.92;77.04;99692.69;10382073;28;20061;-80
2023/12/08 05:55:49;;;;;;;25.67;13.68;;;;;;;0.98;77.02;99697.66;10395498;28;20411;-80
2023/12/08 06:00:54;;;;;;;24.98;13.77;;;;;;;1.00;76.63;99677.28;10408517;28;20042;-81
2023/12/08 06:05:57;;;;;;;26.85;15.13;;;;;;;0.97;76.19;99677.44;10398861;28;20045;-81
2023/12/08 06:11:00;;;;;;;23.48;13.75;;;;;;;0.95;75.58;99675.81;10400024;28;20085;-80
2023/12/08 06:16:05;;;;;;;24.90;13.52;;;;;;;1.06;74.93;99684.88;10394858;28;20034;-79
2023/12/08 06:21:08;;;;;;;22.02;14.05;;;;;;;1.13;74.84;99692.53;10402082;28;20137;-81
2023/12/08 06:26:11;;;;;;;22.77;13.48;;;;;;;1.09;74.49;99683.03;10405874;28;20073;-81
2023/12/08 06:31:15;;;;;;;22.25;13.80;;;;;;;1.14;74.28;99673.06;10429131;28;20040;-79
2023/12/08 06:36:19;;;;;;;23.67;13.18;;;;;;;1.32;74.11;99665.91;10424303;28;20097;-79
2023/12/08 06:41:22;;;;;;;23.92;12.55;;;;;;;1.32;74.38;99666.78;10406792;28;20072;-79
2023/12/08 06:46:26;;;;;;;26.77;14.32;;;;;;;1.21;74.40;99677.94;10410728;28;20045;-79
2023/12/08 06:51:30;;;;;;;23.73;12.68;;;;;;;1.24;74.78;99676.94;10417917;28;20175;-79
2023/12/08 06:56:33;;;;;;;27.80;14.38;;;;;;;1.02;76.96;99671.94;10392791;28;20041;-80
2023/12/08 07:01:37;;;;;;;26.88;14.45;;;;;;;0.99;79.26;99674.75;10454457;28;20026;-80
2023/12/08 07:06:40;;;;;;;25.92;13.65;;;;;;;0.87;81.75;99667.44;10385323;28;20097;-80
2023/12/08 07:11:43;;;;;;;28.55;14.60;;;;;;;0.71;84.64;99675.31;10393042;28;20085;-81
2023/12/08 07:16:48;;;;;;;30.58;15.20;;;;;;;0.49;87.95;99671.09;10408076;28;20091;-81
2023/12/08 07:21:51;;;;;;;29.92;15.50;;;;;;;0.53;90.69;99674.47;10399508;28;20537;-80
2023/12/08 07:26:55;;;;;;;33.28;16.80;;;;;;;0.53;92.34;99666.53;10374084;28;20049;-81
2023/12/08 07:31:59;;;;;;;28.88;16.10;;;;;;;0.60;93.88;99676.72;10377976;28;20068;-81
2023/12/08 07:37:02;;;;;;;33.05;16.08;;;;;;;0.65;94.94;99678.25;10392442;28;20117;-80
2023/12/08 07:42:05;;;;;;;27.23;12.18;;;;;;;1.20;100.00;99678.00;10387652;28;20045;-83
2023/12/08 07:47:10;;;;;;;46.35;22.48;;;;;;;2.14;95.97;99673.72;10395476;28;20501;-80
2023/12/08 07:52:15;;;;;;;27.33;15.40;;;;;;;2.14;94.08;99686.97;10389150;28;20046;-81
2023/12/08 07:57:18;;;;;;;26.70;14.23;;;;;;;2.02;95.08;99703.53;10400948;28;20052;-81
2023/12/08 08:02:23;;;;;;;26.60;15.38;;;;;;;1.98;94.26;99692.28;10404587;28;20402;-80
2023/12/08 08:07:27;;;;;;;31.15;17.33;;;;;;;1.38;93.66;99697.34;10392772;28;20050;-80
2023/12/08 08:12:33;;;;;;;34.03;18.75;;;;;;;0.99;95.79;99707.31;10389511;28;20133;-80
2023/12/08 08:17:37;;;;;;;36.35;19.45;;;;;;;0.79;97.32;99692.47;10376730;28;20819;-80
2023/12/08 08:22:41;;;;;;;43.25;20.42;;;;;;;0.87;98.05;99684.16;10385044;28;20073;-81
2023/12/08 08:27:44;;;;;;;37.78;20.58;;;;;;;0.72;98.50;99692.91;10391737;28;20468;-82
2023/12/08 08:32:48;;;;;;;45.30;21.40;;;;;;;0.84;99.23;99708.97;10383271;28;20050;-80
2023/12/08 08:37:51;;;;;;;46.38;22.55;;;;;;;0.84;99.35;99723.97;10389824;28;20422;-78
2023/12/08 08:42:54;;;;;;;39.33;20.38;;;;;;;0.77;99.03;99701.44;10394888;28;20493;-80
2023/12/08 08:47:58;;;;;;;40.85;21.45;;;;;;;0.81;99.61;99706.47;10400475;28;20420;-81
2023/12/08 08:53:02;;;;;;;46.35;21.38;;;;;;;0.79;100.00;99704.84;10415432;28;20446;-79
2023/12/08 08:58:05;;;;;;;42.88;20.73;;;;;;;0.83;100.00;99703.75;10405260;28;20045;-80
2023/12/08 09:03:09;;;;;;;47.25;21.60;;;;;;;0.87;100.00;99707.09;10402205;28;20080;-79
2023/12/08 09:08:13;;;;;;;43.97;21.13;;;;;;;0.74;99.84;99691.88;10399503;28;20042;-82
2023/12/08 09:13:16;;;;;;;40.78;20.73;;;;;;;0.79;100.00;99686.34;10426098;28;20053;-81
2023/12/08 09:18:20;;;;;;;44.28;21.48;;;;;;;0.89;100.00;99679.63;10415858;28;20416;-82
2023/12/08 09:23:23;;;;;;;41.83;21.25;;;;;;;0.83;100.00;99686.09;10402432;28;20106;-80
2023/12/08 09:28:26;;;;;;;35.70;19.05;;;;;;;1.01;100.00;99694.84;10406124;28;20038;-80
2023/12/08 09:33:31;;;;;;;38.97;19.70;;;;;;;1.04;99.73;99696.47;10412758;28;20049;-80
2023/12/08 09:38:34;;;;;;;41.97;21.25;;;;;;;1.06;99.79;99692.81;10400253;28;20045;-80
2023/12/08 09:43:43;;;;;;;41.45;22.25;;;;;;;1.11;99.88;99694.41;10393576;28;20046;-82
2023/12/08 09:48:48;;;;;;;43.83;21.92;;;;;;;1.02;99.31;99696.59;10400741;28;20842;-80
2023/12/08 09:53:52;;;;;;;38.55;20.55;;;;;;;1.13;99.68;99701.31;10406935;28;20041;-80
2023/12/08 09:58:56;;;;;;;37.95;20.80;;;;;;;1.18;99.01;99694.00;10413975;28;20497;-80
2023/12/08 10:04:01;;;;;;;39.42;19.90;;;;;;;1.08;98.76;99690.13;10413027;28;20497;-80
2023/12/08 10:09:04;;;;;;;40.53;21.35;;;;;;;1.19;99.42;99695.69;10442264;28;20038;-78
2023/12/08 10:14:08;;;;;;;36.80;20.25;;;;;;;1.32;99.11;99697.66;10451672;28;20045;-81
2023/12/08 10:19:12;;;;;;;40.88;20.33;;;;;;;1.35;98.52;99711.59;10426191;28;20065;-78
2023/12/08 10:24:17;;;;;;;39.17;19.40;;;;;;;1.42;98.93;99715.63;10414230;28;20041;-82
2023/12/08 10:29:20;;;;;;;34.42;18.83;;;;;;;1.43;98.88;99703.25;10412286;28;20049;-80
2023/12/08 10:34:25;;;;;;;39.20;20.67;;;;;;;1.28;98.49;99684.59;10405656;28;20042;-80
2023/12/08 10:39:28;;;;;;;35.42;18.98;;;;;;;1.39;99.01;99675.25;10407091;28;20064;-82
2023/12/08 10:44:32;;;;;;;34.63;19.55;;;;;;;1.34;97.73;99672.84;10401517;28;20133;-81
2023/12/08 10:49:39;;;;;;;33.10;18.58;;;;;;;1.49;98.79;99676.47;10406677;28;20428;-78
2023/12/08 10:54:42;;;;;;;34.60;19.20;;;;;;;1.52;98.05;99672.78;10395988;28;20042;-81
2023/12/08 10:59:49;;;;;;;36.88;18.85;;;;;;;1.50;98.26;99681.66;10405880;28;20038;-81
2023/12/08 11:04:57;;;;;;;36.70;19.20;;;;;;;1.54;98.50;99684.13;10402475;28;20025;-81
2023/12/08 11:10:06;;;;;;;37.75;19.23;;;;;;;1.53;98.35;99675.34;10400344;28;20807;-80
2023/12/08 11:15:16;;;;;;;35.70;19.77;;;;;;;1.58;99.42;99680.38;10399671;28;20412;-79
2023/12/08 11:20:21;;;;;;;36.45;18.75;;;;;;;1.52;98.95;99676.28;10393034;28;20077;-79
2023/12/08 11:25:31;;;;;;;34.38;18.80;;;;;;;1.59;99.48;99679.44;10404096;28;20050;-81
2023/12/08 11:30:45;;;;;;;31.75;17.67;;;;;;;1.67;99.63;99670.16;10394373;28;20053;-80
2023/12/08 11:35:52;;;;;;;29.25;17.63;;;;;;;1.66;99.47;99667.56;10396952;28;20034;-81
2023/12/08 11:40:57;;;;;;;35.40;18.92;;;;;;;1.75;99.69;99667.06;10391539;28;20052;-80
2023/12/08 11:46:01;;;;;;;33.45;17.98;;;;;;;1.79;99.53;99665.97;10398894;28;20696;-81
2023/12/08 11:51:07;;;;;;;32.80;18.30;;;;;;;1.76;99.02;99662.63;10397510;28;20494;-79
2023/12/08 11:56:37;;;;;;;30.98;18.55;;;;;;;1.89;99.43;99655.69;10389304;28;20498;-79
2023/12/08 12:01:42;;;;;;;32.88;18.08;;;;;;;1.85;99.22;99672.72;10411259;28;20076;-80
2023/12/08 12:06:49;;;;;;;34.40;17.98;;;;;;;1.85;99.50;99673.56;10373480;28;20074;-80
2023/12/08 12:11:56;;;;;;;30.92;16.88;;;;;;;1.86;99.74;99682.34;10372494;28;20537;-80
2023/12/08 12:16:59;;;;;;;32.88;18.73;;;;;;;1.79;99.62;99667.75;10379813;28;20038;-79
2023/12/08 12:22:04;;;;;;;33.92;19.60;;;;;;;1.76;99.88;99675.88;10397049;28;20049;-79
2023/12/08 12:27:07;;;;;;;35.42;19.08;;;;;;;1.81;100.00;99682.63;10387183;28;20427;-80
2023/12/08 12:32:11;;;;;;;40.05;19.85;;;;;;;1.84;100.00;99671.84;10392320;28;20485;-80
2023/12/08 12:37:18;;;;;;;37.92;19.23;;;;;;;1.91;100.00;99682.94;10385823;28;20053;-81
2023/12/08 12:42:21;;;;;;;31.58;18.65;;;;;;;1.97;100.00;99687.03;10406648;28;20578;-80
2023/12/08 12:47:26;;;;;;;39.88;19.83;;;;;;;2.02;100.00;99682.34;10398539;28;20073;-79
2023/12/08 12:52:31;;;;;;;34.05;18.60;;;;;;;2.04;100.00;99683.13;10395132;28;20081;-80
2023/12/08 12:57:41;;;;;;;30.55;18.45;;;;;;;2.06;100.00;99687.38;10420413;28;20536;-80
2023/12/08 13:02:44;;;;;;;37.40;19.00;;;;;;;2.06;100.00;99678.59;10402340;28;20042;-78
2023/12/08 13:07:58;;;;;;;33.88;17.58;;;;;;;2.09;100.00;99687.22;10396848;28;20069;-79
2023/12/08 13:13:01;;;;;;;32.25;17.98;;;;;;;2.07;100.00;99678.50;10394727;28;20418;-80
2023/12/08 13:18:05;;;;;;;30.55;17.33;;;;;;;2.05;100.00;99675.06;10396154;28;20157;-80
2023/12/08 13:23:10;;;;;;;30.35;16.98;;;;;;;2.12;100.00;99686.19;10400602;28;20082;-80
2023/12/08 13:28:13;;;;;;;29.27;16.35;;;;;;;2.18;100.00;99685.81;10393780;28;20041;-79
2023/12/08 13:33:16;;;;;;;32.45;17.02;;;;;;;2.22;100.00;99676.75;10413653;28;20052;-79
2023/12/08 13:38:22;;;;;;;34.00;17.48;;;;;;;2.18;100.00;99697.28;10405835;28;20040;-80
2023/12/08 13:43:25;;;;;;;31.98;17.27;;;;;;;2.23;100.00;99698.81;10406624;28;20053;-82
2023/12/08 13:48:28;;;;;;;35.67;20.92;;;;;;;2.24;100.00;99695.22;10397855;28;20042;-80
2023/12/08 13:53:32;;;;;;;32.15;18.67;;;;;;;2.26;100.00;99696.84;10398142;28;20049;-79
2023/12/08 13:58:35;;;;;;;33.20;17.92;;;;;;;2.30;100.00;99697.50;10395888;28;20045;-80
2023/12/08 14:03:38;;;;;;;39.05;20.20;;;;;;;2.28;100.00;99720.63;10403403;28;20579;-80
2023/12/08 14:08:46;;;;;;;35.80;19.35;;;;;;;2.38;100.00;99719.13;10402294;28;20045;-80
2023/12/08 14:13:49;;;;;;;35.45;18.77;;;;;;;2.43;100.00;99714.41;10395586;28;20092;-78
2023/12/08 14:18:52;;;;;;;33.25;18.60;;;;;;;2.48;100.00;99717.66;10411041;28;20052;-81
2023/12/08 14:23:56;;;;;;;37.10;18.95;;;;;;;2.48;100.00;99725.63;10403523;28;20049;-81
2023/12/08 14:28:59;;;;;;;35.95;18.35;;;;;;;2.50;100.00;99738.78;10405239;28;20048;-80
2023/12/08 14:34:03;;;;;;;51.72;24.52;;;;;;;2.58;100.00;99729.47;10374154;28;20053;-81
2023/12/08 14:39:10;;;;;;;39.17;20.63;;;;;;;2.62;100.00;99730.16;10373879;28;20504;-80
2023/12/08 14:44:13;;;;;;;32.33;18.75;;;;;;;2.58;100.00;99736.59;10374203;28;20049;-81
2023/12/08 14:49:17;;;;;;;37.20;20.20;;;;;;;2.60;100.00;99740.81;10402618;28;20058;-80
2023/12/08 14:54:22;;;;;;;37.60;18.48;;;;;;;2.68;100.00;99748.34;10388353;28;20120;-80
2023/12/08 14:59:33;;;;;;;35.78;18.88;;;;;;;2.74;100.00;99745.34;10398584;28;20100;-80
2023/12/08 15:04:36;;;;;;;43.35;19.52;;;;;;;2.81;100.00;99744.03;10392562;28;20058;-79
2023/12/08 15:09:41;;;;;;;37.90;20.20;;;;;;;2.93;100.00;99744.25;10387811;28;20394;-80
2023/12/08 15:14:44;;;;;;;39.58;20.33;;;;;;;3.01;100.00;99740.19;10391138;28;20067;-81
2023/12/08 15:19:47;;;;;;;41.03;18.15;;;;;;;3.14;100.00;99756.22;10395218;28;20049;-80
2023/12/08 15:24:51;;;;;;;44.42;20.35;;;;;;;3.25;100.00;99750.28;10401882;28;20068;-79
2023/12/08 15:29:54;;;;;;;47.17;20.02;;;;;;;3.32;100.00;99759.59;10388510;28;20048;-79
2023/12/08 15:34:59;;;;;;;42.55;20.20;;;;;;;3.25;100.00;99761.75;10388884;28;20046;-80
2023/12/08 15:40:03;;;;;;;45.85;19.38;;;;;;;3.31;100.00;99755.22;10389676;28;20101;-79
2023/12/08 15:45:07;;;;;;;41.78;18.83;;;;;;;3.16;100.00;99772.94;10386708;28;20046;-79
2023/12/08 15:50:10;;;;;;;44.90;19.83;;;;;;;3.39;100.00;99770.69;10402510;28;20107;-80
2023/12/08 15:55:15;;;;;;;48.08;20.17;;;;;;;3.27;100.00;99780.25;10393238;28;20046;-80
2023/12/08 16:00:19;;;;;;;51.83;20.60;;;;;;;3.41;100.00;99790.03;10402378;28;20409;-79
2023/12/08 16:05:22;;;;;;;44.67;20.98;;;;;;;3.53;100.00;99789.28;10393849;28;20104;-80
2023/12/08 16:10:26;;;;;;;50.80;21.88;;;;;;;3.53;100.00;99783.97;10395302;28;20136;-79
2023/12/08 16:15:30;;;;;;;46.75;22.45;;;;;;;3.47;100.00;99789.66;10392996;28;20080;-78
2023/12/08 16:20:33;;;;;;;49.10;19.52;;;;;;;3.33;100.00;99805.56;10397696;28;20097;-80
2023/12/08 16:25:38;;;;;;;48.40;19.63;;;;;;;3.36;100.00;99808.03;10393753;28;20133;-80
2023/12/08 16:30:42;;;;;;;55.50;23.25;;;;;;;3.43;100.00;99823.50;10408755;28;20413;-80
2023/12/08 16:35:46;;;;;;;51.72;22.33;;;;;;;3.71;100.00;99817.38;10400181;28;20042;-80
2023/12/08 16:40:50;;;;;;;49.72;21.27;;;;;;;3.72;100.00;99818.22;10400102;28;20049;-80
2023/12/08 16:45:53;;;;;;;52.90;19.52;;;;;;;3.64;100.00;99816.03;10417096;28;20585;-80
2023/12/08 16:50:57;;;;;;;49.70;21.27;;;;;;;3.64;100.00;99816.03;10424409;28;20403;-78
2023/12/08 16:56:05;;;;;;;56.30;22.67;;;;;;;3.77;100.00;99816.13;10410021;28;20041;-78
2023/12/08 17:01:08;;;;;;;55.10;22.88;;;;;;;3.62;100.00;99825.03;10400837;28;20041;-79
2023/12/08 17:06:11;;;;;;;49.47;21.73;;;;;;;3.68;100.00;99828.19;10381983;28;20141;-79
2023/12/08 17:11:17;;;;;;;62.53;24.23;;;;;;;3.87;100.00;99827.91;10378432;28;20489;-79
2023/12/08 17:16:20;;;;;;;58.70;21.52;;;;;;;3.93;100.00;99837.31;10391710;28;20057;-79
2023/12/08 17:21:23;;;;;;;52.67;23.90;;;;;;;3.91;100.00;99840.03;10378417;28;20464;-80
2023/12/08 17:26:27;;;;;;;64.10;23.45;;;;;;;3.93;100.00;99850.59;10378255;28;20410;-80
2023/12/08 17:31:42;;;;;;;61.20;24.77;;;;;;;3.99;100.00;99852.84;10380387;28;20065;-81
2023/12/08 17:36:45;;;;;;;58.15;25.05;;;;;;;4.10;100.00;99857.50;10399734;28;20049;-79
2023/12/08 17:41:49;;;;;;;68.20;25.35;;;;;;;4.05;100.00;99856.94;10398059;28;20045;-79
2023/12/08 17:46:52;;;;;;;64.80;22.08;;;;;;;4.08;100.00;99862.91;10392412;28;20042;-79
2023/12/08 17:51:56;;;;;;;66.45;27.05;;;;;;;3.78;100.00;99875.44;10403434;28;20045;-79
2023/12/08 17:57:02;;;;;;;60.55;22.35;;;;;;;3.78;100.00;99888.72;10399705;28;20038;-78
2023/12/08 18:02:06;;;;;;;64.75;24.48;;;;;;;3.93;100.00;99893.09;10402344;28;20073;-80
2023/12/08 18:07:10;;;;;;;65.93;25.20;;;;;;;4.09;100.00;99901.00;10395737;28;20038;-79
2023/12/08 18:12:16;;;;;;;65.05;24.95;;;;;;;4.21;100.00;99912.66;10408307;28;20042;-80
2023/12/08 18:17:20;;;;;;;62.30;25.60;;;;;;;4.14;100.00;99902.41;10401883;28;20080;-79
2023/12/08 18:22:23;;;;;;;66.00;26.25;;;;;;;4.25;100.00;99898.22;10405583;28;20045;-79
2023/12/08 18:27:29;;;;;;;61.72;24.23;;;;;;;4.26;100.00;99902.59;10385422;28;20049;-79
2023/12/08 18:32:52;;;;;;;57.40;23.95;;;;;;;4.19;100.00;99912.75;10407292;28;20099;-79
2023/12/08 18:37:55;;;;;;;63.35;22.45;;;;;;;4.20;100.00;99919.78;10396167;28;20034;-80
2023/12/08 18:42:59;;;;;;;55.47;23.10;;;;;;;4.14;100.00;99912.16;10398221;28;20041;-79
2023/12/08 18:48:02;;;;;;;67.28;26.27;;;;;;;4.20;100.00;99921.56;10394011;28;20041;-79
2023/12/08 18:53:05;;;;;;;61.00;26.15;;;;;;;4.32;100.00;99920.81;10396655;28;20042;-80
2023/12/08 18:58:11;;;;;;;63.60;24.77;;;;;;;4.36;100.00;99927.66;10409283;28;20072;-78
2023/12/08 19:03:14;;;;;;;60.47;26.27;;;;;;;4.42;100.00;99923.78;10397896;28;20037;-79
2023/12/08 19:08:18;;;;;;;66.28;27.10;;;;;;;4.45;100.00;99921.78;10393976;28;20044;-81
2023/12/08 19:13:22;;;;;;;67.95;28.13;;;;;;;4.40;100.00;99918.53;10394279;28;20057;-79
2023/12/08 19:18:25;;;;;;;65.65;27.63;;;;;;;4.40;100.00;99929.19;10404025;28;20042;-79
2023/12/08 19:23:28;;;;;;;67.32;27.38;;;;;;;4.43;100.00;99923.66;10401036;28;20416;-79
2023/12/08 19:28:37;;;;;;;69.10;27.30;;;;;;;4.48;100.00;99920.72;10384845;28;20477;-79
2023/12/08 19:33:40;;;;;;;66.70;26.45;;;;;;;4.42;100.00;99927.28;10389404;28;20063;-80
2023/12/08 19:38:43;;;;;;;72.43;27.88;;;;;;;4.44;100.00;99935.16;10394807;28;20696;-78
2023/12/08 19:43:48;;;;;;;67.43;28.52;;;;;;;4.48;100.00;99939.34;10376050;28;20141;-79
2023/12/08 19:48:51;;;;;;;76.78;29.08;;;;;;;4.52;100.00;99949.66;10374959;28;20038;-80
2023/12/08 19:53:54;;;;;;;76.22;28.92;;;;;;;4.61;100.00;99949.13;10377120;28;20034;-79
2023/12/08 19:58:58;;;;;;;75.85;27.33;;;;;;;4.65;100.00;99939.13;10393221;28;20137;-79
2023/12/08 20:04:01;;;;;;;66.80;24.90;;;;;;;4.66;100.00;99956.78;10396997;28;20412;-80
2023/12/08 20:09:04;;;;;;;59.25;21.73;;;;;;;4.70;100.00;99958.31;10411870;28;20042;-78
2023/12/08 20:14:09;;;;;;;78.35;28.55;;;;;;;4.73;100.00;99946.63;10398421;28;20045;-80
2023/12/08 20:19:13;;;;;;;76.45;27.38;;;;;;;4.82;100.00;99956.66;10398519;28;20590;-80
2023/12/08 20:24:16;;;;;;;82.50;29.58;;;;;;;4.78;100.00;99949.84;10411844;28;20125;-81
2023/12/08 20:29:21;;;;;;;80.88;28.77;;;;;;;4.93;100.00;99954.16;10414319;28;20087;-80
2023/12/08 20:34:24;;;;;;;76.53;21.73;;;;;;;4.82;100.00;99957.53;10412358;28;20485;-81
2023/12/08 20:39:27;;;;;;;79.82;27.20;;;;;;;4.95;100.00;99965.59;10396180;28;20503;-79
2023/12/08 20:44:31;;;;;;;85.57;27.90;;;;;;;5.01;100.00;99956.38;10396844;28;20056;-79
2023/12/08 20:49:34;;;;;;;86.38;28.88;;;;;;;5.10;100.00;99968.22;10403344;28;20069;-80
2023/12/08 20:54:37;;;;;;;79.25;29.13;;;;;;;5.19;100.00;99976.50;10376985;28;20081;-78
2023/12/08 20:59:44;;;;;;;86.05;30.45;;;;;;;5.22;100.00;99978.94;10408664;28;20497;-77
2023/12/08 21:04:48;;;;;;;89.15;29.42;;;;;;;5.25;100.00;99985.88;10417456;28;20516;-80
2023/12/08 21:09:51;;;;;;;72.00;28.80;;;;;;;5.30;100.00;99989.13;10420895;28;20397;-79
2023/12/08 21:14:56;;;;;;;81.22;28.38;;;;;;;5.33;100.00;99990.72;10413975;28;20045;-80
2023/12/08 21:19:59;;;;;;;60.60;19.80;;;;;;;4.97;100.00;99998.28;10419183;28;20037;-79
2023/12/08 21:25:04;;;;;;;63.17;27.92;;;;;;;5.37;100.00;99990.41;10413929;28;20045;-80
2023/12/08 21:30:09;;;;;;;67.68;26.33;;;;;;;5.43;100.00;100003.34;10413825;28;20069;-80
2023/12/08 21:35:12;;;;;;;72.25;27.85;;;;;;;5.55;100.00;99992.81;10408359;28;20076;-78
2023/12/08 21:40:16;;;;;;;70.05;27.58;;;;;;;5.60;100.00;99988.91;10405161;28;20037;-78
2023/12/08 21:45:21;;;;;;;72.68;27.90;;;;;;;5.58;100.00;99993.47;10419364;28;20049;-79
2023/12/08 21:50:24;;;;;;;66.80;28.27;;;;;;;5.57;100.00;99998.88;10393771;28;20034;-78
2023/12/08 21:55:30;;;;;;;61.47;26.83;;;;;;;5.54;100.00;99999.97;10406197;28;20053;-79
2023/12/08 22:00:34;;;;;;;65.05;27.15;;;;;;;5.53;100.00;100005.38;10413902;28;20117;-79
2023/12/08 22:05:37;;;;;;;59.83;27.10;;;;;;;5.52;100.00;100007.19;10405217;28;20042;-79
2023/12/08 22:10:41;;;;;;;69.05;28.15;;;;;;;5.50;100.00;100009.09;10416239;28;20089;-78
2023/12/08 22:15:47;;;;;;;59.40;26.55;;;;;;;5.53;100.00;100010.72;10410952;28;20044;-77
2023/12/08 22:20:50;;;;;;;51.75;22.27;;;;;;;5.44;100.00;100012.19;10432542;28;20025;-79
2023/12/08 22:25:53;;;;;;;55.95;24.42;;;;;;;5.54;100.00;100010.63;10418168;28;20037;-78
2023/12/08 22:30:57;;;;;;;54.75;23.80;;;;;;;5.53;100.00;100024.03;10408510;28;20052;-80
2023/12/08 22:36:00;;;;;;;56.42;25.33;;;;;;;5.57;100.00;100028.19;10394308;28;20049;-79
2023/12/08 22:41:04;;;;;;;52.35;25.40;;;;;;;5.58;100.00;100029.91;10379106;28;20046;-79
2023/12/08 22:46:09;;;;;;;55.38;23.67;;;;;;;5.50;100.00;100025.94;10396674;28;20045;-78
2023/12/08 22:51:12;;;;;;;47.08;22.38;;;;;;;5.46;100.00;100035.09;10408437;28;20038;-78
2023/12/08 22:56:21;;;;;;;44.30;21.08;;;;;;;5.52;100.00;100035.66;10409793;28;20053;-78
2023/12/08 23:01:26;;;;;;;48.63;23.52;;;;;;;5.50;100.00;100036.59;10415267;28;20030;-78
2023/12/08 23:06:29;;;;;;;44.58;23.02;;;;;;;5.49;100.00;100042.88;10404716;28;20053;-78